PWSweather.com
Personal Weather Stations
Station Observations
RAINWISE1
Rainwise Factory, Bar Harbor, ME 04609

Rainwise FactoryBar Harbor, ME 04609

Lat: 44.3897429696629, Lon: -68.2077813148499

Elevation: 29

Station Type: Rainwise MK-III

www.rainwise.com

High Low Average
Temperature 69.2°F20.7°C 51.2°F10.7°C 61.3°F16.3°C
Dew Point 66.8°F19.3°C 49.8°F9.9°C 59.0°F15.0°C
Winds 11.8 mph 19.0 kmh Calm Calm 4.0 mph SW6.4 kmh SW
Wind Gusts 18.6 mph29.9 kmh -- 6.0 mph9.7 kmh
Humidity 98% 80% 92%
Pressure 30.05 in1017.6 mb 0.00 in0.0 mb -
Precipitation 0.35 in8.9 mm - -
Hour Temp Dew Point Humidity Winds Wind Gusts Pressure Precip Precip Rate Daily Precip Total
12:04 AM 54.0°F12.2°C 51.1°F10.6°C 90% 2.7 mph SW4.3 kmh SW 3.2 mph5.1 kmh 30.07 in1018.3 mb 0.00 in0.0 mm 0.00 in0.0 mm 0.00 in0.0 mm
12:09 AM 54.0°F12.2°C 50.8°F10.4°C 89% 2.5 mph SW4.0 kmh SW 3.0 mph4.8 kmh 30.07 in1018.3 mb 0.00 in0.0 mm 0.00 in0.0 mm 0.00 in0.0 mm
12:14 AM 54.1°F12.3°C 51.2°F10.7°C 90% 2.7 mph SSW4.3 kmh SSW 3.5 mph5.6 kmh 30.07 in1018.3 mb 0.00 in0.0 mm 0.00 in0.0 mm 0.00 in0.0 mm
12:19 AM 54.1°F12.3°C 50.9°F10.5°C 89% 2.4 mph SSW3.9 kmh SSW 3.2 mph5.1 kmh 30.06 in1017.9 mb 0.00 in0.0 mm 0.00 in0.0 mm 0.00 in0.0 mm
12:24 AM 54.1°F12.3°C 51.2°F10.7°C 90% 1.2 mph SSW1.9 kmh SSW 2.6 mph4.2 kmh 30.06 in1017.9 mb 0.00 in0.0 mm 0.00 in0.0 mm 0.00 in0.0 mm
12:29 AM 54.2°F12.3°C 51.3°F10.7°C 90% 2.5 mph SSW4.0 kmh SSW 3.5 mph5.6 kmh 30.06 in1017.9 mb 0.00 in0.0 mm 0.00 in0.0 mm 0.00 in0.0 mm
12:34 AM 54.2°F12.3°C 51.3°F10.7°C 90% 1.9 mph SW3.1 kmh SW 2.7 mph4.3 kmh 30.06 in1017.9 mb 0.00 in0.0 mm 0.00 in0.0 mm 0.00 in0.0 mm
12:39 AM 54.2°F12.3°C 51.6°F10.9°C 91% 2.7 mph SSW4.3 kmh SSW 3.5 mph5.6 kmh 30.06 in1017.9 mb 0.00 in0.0 mm 0.00 in0.0 mm 0.00 in0.0 mm
12:44 AM 54.2°F12.3°C 51.6°F10.9°C 91% 1.6 mph SSW2.6 kmh SSW 2.1 mph3.4 kmh 30.06 in1017.9 mb 0.00 in0.0 mm 0.00 in0.0 mm 0.00 in0.0 mm
12:49 AM 54.2°F12.3°C 51.3°F10.7°C 90% 0.4 mph SSW0.6 kmh SSW 2.1 mph3.4 kmh 30.06 in1017.9 mb 0.00 in0.0 mm 0.00 in0.0 mm 0.00 in0.0 mm
12:54 AM 54.1°F12.3°C 51.2°F10.7°C 90% 0.2 mph SSW0.3 kmh SSW 1.1 mph1.8 kmh 30.06 in1017.9 mb 0.00 in0.0 mm 0.00 in0.0 mm 0.00 in0.0 mm
12:59 AM 54.1°F12.3°C 51.5°F10.8°C 91% Calm Calm -- 30.05 in1017.6 mb 0.00 in0.0 mm 0.00 in0.0 mm 0.00 in0.0 mm
01:04 AM 54.1°F12.3°C 51.5°F10.8°C 91% Calm Calm -- 30.05 in1017.6 mb 0.00 in0.0 mm 0.00 in0.0 mm 0.00 in0.0 mm
01:09 AM 54.1°F12.3°C 51.5°F10.8°C 91% Calm Calm -- 30.05 in1017.6 mb 0.00 in0.0 mm 0.00 in0.0 mm 0.00 in0.0 mm
01:14 AM 54.1°F12.3°C 51.5°F10.8°C 91% Calm Calm -- 30.05 in1017.6 mb 0.00 in0.0 mm 0.00 in0.0 mm 0.00 in0.0 mm
01:19 AM 54.1°F12.3°C 51.5°F10.8°C 91% Calm Calm -- 30.05 in1017.6 mb 0.00 in0.0 mm 0.00 in0.0 mm 0.00 in0.0 mm
01:24 AM 54.2°F12.3°C 51.9°F11.1°C 92% Calm Calm -- 30.05 in1017.6 mb 0.00 in0.0 mm 0.00 in0.0 mm 0.00 in0.0 mm
01:29 AM 54.1°F12.3°C 51.8°F11.0°C 92% 2.1 mph SSW3.4 kmh SSW 2.6 mph4.2 kmh 30.05 in1017.6 mb 0.00 in0.0 mm 0.00 in0.0 mm 0.00 in0.0 mm
01:34 AM 54.1°F12.3°C 51.8°F11.0°C 92% 2.8 mph SSW4.5 kmh SSW 3.5 mph5.6 kmh 30.04 in1017.3 mb 0.00 in0.0 mm 0.00 in0.0 mm 0.00 in0.0 mm
01:39 AM 54.1°F12.3°C 51.8°F11.0°C 92% 1.5 mph SSW2.4 kmh SSW 1.8 mph2.9 kmh 30.04 in1017.3 mb 0.00 in0.0 mm 0.00 in0.0 mm 0.00 in0.0 mm
01:44 AM 54.1°F12.3°C 51.8°F11.0°C 92% 0.7 mph SSW1.1 kmh SSW 1.3 mph2.1 kmh 30.04 in1017.3 mb 0.00 in0.0 mm 0.00 in0.0 mm 0.00 in0.0 mm
01:49 AM 54.1°F12.3°C 51.8°F11.0°C 92% 1.4 mph SSW2.3 kmh SSW 2.1 mph3.4 kmh 30.04 in1017.3 mb 0.00 in0.0 mm 0.00 in0.0 mm 0.00 in0.0 mm
01:54 AM 54.1°F12.3°C 51.5°F10.8°C 91% 1.8 mph SSW2.9 kmh SSW 2.2 mph3.5 kmh 30.04 in1017.3 mb 0.00 in0.0 mm 0.00 in0.0 mm 0.00 in0.0 mm
01:59 AM 54.1°F12.3°C 51.5°F10.8°C 91% 1.9 mph SSW3.1 kmh SSW 2.1 mph3.4 kmh 30.03 in1016.9 mb 0.00 in0.0 mm 0.00 in0.0 mm 0.00 in0.0 mm
02:04 AM 54.1°F12.3°C 52.1°F11.2°C 93% 1.9 mph SSW3.1 kmh SSW 2.2 mph3.5 kmh 30.03 in1016.9 mb 0.00 in0.0 mm 0.00 in0.0 mm 0.00 in0.0 mm
02:09 AM 54.1°F12.3°C 51.8°F11.0°C 92% 2.1 mph S3.4 kmh S 2.7 mph4.3 kmh 30.03 in1016.9 mb 0.00 in0.0 mm 0.00 in0.0 mm 0.00 in0.0 mm
02:14 AM 54.0°F12.2°C 52.0°F11.1°C 93% Calm Calm -- 30.03 in1016.9 mb 0.00 in0.0 mm 0.00 in0.0 mm 0.00 in0.0 mm
02:19 AM 54.1°F12.3°C 52.1°F11.2°C 93% Calm Calm -- 30.03 in1016.9 mb 0.00 in0.0 mm 0.00 in0.0 mm 0.00 in0.0 mm
02:24 AM 54.0°F12.2°C 52.0°F11.1°C 93% Calm Calm -- 30.02 in1016.6 mb 0.00 in0.0 mm 0.00 in0.0 mm 0.00 in0.0 mm
02:29 AM 53.7°F12.1°C 51.4°F10.8°C 92% Calm Calm -- 30.02 in1016.6 mb 0.00 in0.0 mm 0.00 in0.0 mm 0.00 in0.0 mm
02:34 AM 53.6°F12.0°C 51.3°F10.7°C 92% Calm Calm -- 30.02 in1016.6 mb 0.00 in0.0 mm 0.00 in0.0 mm 0.00 in0.0 mm
02:39 AM 53.3°F11.8°C 51.0°F10.6°C 92% Calm Calm -- 30.02 in1016.6 mb 0.00 in0.0 mm 0.00 in0.0 mm 0.00 in0.0 mm
02:44 AM 53.1°F11.7°C 51.4°F10.8°C 94% Calm Calm -- 30.02 in1016.6 mb 0.00 in0.0 mm 0.00 in0.0 mm 0.00 in0.0 mm
02:49 AM 53.0°F11.7°C 51.0°F10.6°C 93% Calm Calm -- 30.01 in1016.3 mb 0.00 in0.0 mm 0.00 in0.0 mm 0.00 in0.0 mm
02:54 AM 53.1°F11.7°C 51.1°F10.6°C 93% Calm Calm -- 30.01 in1016.3 mb 0.00 in0.0 mm 0.00 in0.0 mm 0.00 in0.0 mm
02:59 AM 53.2°F11.8°C 51.2°F10.7°C 93% Calm Calm -- 30.01 in1016.3 mb 0.00 in0.0 mm 0.00 in0.0 mm 0.00 in0.0 mm
03:04 AM 53.1°F11.7°C 51.4°F10.8°C 94% 0.1 mph SSW0.2 kmh SSW 1.1 mph1.8 kmh 30.00 in1015.9 mb 0.00 in0.0 mm 0.00 in0.0 mm 0.00 in0.0 mm
03:09 AM 53.1°F11.7°C 51.7°F10.9°C 95% Calm Calm -- 30.00 in1015.9 mb 0.00 in0.0 mm 0.00 in0.0 mm 0.00 in0.0 mm
03:14 AM 53.3°F11.8°C 51.6°F10.9°C 94% Calm Calm -- 30.00 in1015.9 mb 0.00 in0.0 mm 0.00 in0.0 mm 0.00 in0.0 mm
03:19 AM 53.5°F11.9°C 52.1°F11.2°C 95% 0.3 mph SSW0.5 kmh SSW 2.1 mph3.4 kmh 30.00 in1015.9 mb 0.00 in0.0 mm 0.00 in0.0 mm 0.00 in0.0 mm
03:24 AM 53.5°F11.9°C 51.8°F11.0°C 94% 0.1 mph SSW0.2 kmh SSW 1.1 mph1.8 kmh 29.99 in1015.6 mb 0.00 in0.0 mm 0.00 in0.0 mm 0.00 in0.0 mm
03:29 AM 53.5°F11.9°C 51.8°F11.0°C 94% 0.6 mph SSW1.0 kmh SSW 1.3 mph2.1 kmh 29.99 in1015.6 mb 0.00 in0.0 mm 0.00 in0.0 mm 0.00 in0.0 mm
03:34 AM 53.5°F11.9°C 52.1°F11.2°C 95% Calm Calm -- 29.99 in1015.6 mb 0.00 in0.0 mm 0.00 in0.0 mm 0.00 in0.0 mm
03:39 AM 53.5°F11.9°C 51.8°F11.0°C 94% Calm Calm -- 30.00 in1015.9 mb 0.00 in0.0 mm 0.00 in0.0 mm 0.00 in0.0 mm
03:44 AM 53.4°F11.9°C 52.0°F11.1°C 95% Calm Calm -- 29.99 in1015.6 mb 0.00 in0.0 mm 0.00 in0.0 mm 0.00 in0.0 mm
03:49 AM 53.2°F11.8°C 51.8°F11.0°C 95% Calm Calm -- 29.99 in1015.6 mb 0.00 in0.0 mm 0.00 in0.0 mm 0.00 in0.0 mm
03:54 AM 52.9°F11.6°C 51.2°F10.7°C 94% Calm Calm -- 29.98 in1015.2 mb 0.00 in0.0 mm 0.00 in0.0 mm 0.00 in0.0 mm
03:59 AM 52.7°F11.5°C 51.3°F10.7°C 95% Calm Calm -- 29.98 in1015.2 mb 0.00 in0.0 mm 0.00 in0.0 mm 0.00 in0.0 mm
04:04 AM 52.5°F11.4°C 50.8°F10.4°C 94% Calm Calm -- 29.97 in1014.9 mb 0.00 in0.0 mm 0.00 in0.0 mm 0.00 in0.0 mm
04:09 AM 52.3°F11.3°C 50.9°F10.5°C 95% Calm Calm -- 29.97 in1014.9 mb 0.00 in0.0 mm 0.00 in0.0 mm 0.00 in0.0 mm
04:14 AM 52.2°F11.2°C 51.1°F10.6°C 96% Calm Calm -- 29.97 in1014.9 mb 0.00 in0.0 mm 0.00 in0.0 mm 0.00 in0.0 mm
04:19 AM 52.1°F11.2°C 51.0°F10.6°C 96% Calm Calm -- 29.97 in1014.9 mb 0.00 in0.0 mm 0.00 in0.0 mm 0.00 in0.0 mm
04:24 AM 51.8°F11.0°C 50.7°F10.4°C 96% Calm Calm -- 29.97 in1014.9 mb 0.00 in0.0 mm 0.00 in0.0 mm 0.00 in0.0 mm
04:29 AM 51.6°F10.9°C 50.2°F10.1°C 95% Calm Calm -- 29.96 in1014.6 mb 0.00 in0.0 mm 0.00 in0.0 mm 0.00 in0.0 mm
04:34 AM 51.4°F10.8°C 50.3°F10.2°C 96% Calm Calm -- 29.96 in1014.6 mb 0.00 in0.0 mm 0.00 in0.0 mm 0.00 in0.0 mm
04:39 AM 51.2°F10.7°C 50.1°F10.1°C 96% Calm Calm -- 29.96 in1014.6 mb 0.00 in0.0 mm 0.00 in0.0 mm 0.00 in0.0 mm
04:44 AM 51.2°F10.7°C 49.8°F9.9°C 95% 1.6 mph NNW2.6 kmh NNW 1.8 mph2.9 kmh 29.96 in1014.6 mb 0.00 in0.0 mm 0.00 in0.0 mm 0.00 in0.0 mm
04:49 AM 51.3°F10.7°C 50.2°F10.1°C 96% 0.7 mph NNW1.1 kmh NNW 2.2 mph3.5 kmh 29.96 in1014.6 mb 0.00 in0.0 mm 0.00 in0.0 mm 0.00 in0.0 mm
04:54 AM 51.5°F10.8°C 50.4°F10.2°C 96% 0.8 mph NNW1.3 kmh NNW 1.3 mph2.1 kmh 29.96 in1014.6 mb 0.00 in0.0 mm 0.00 in0.0 mm 0.00 in0.0 mm
04:59 AM 51.6°F10.9°C 50.8°F10.4°C 97% Calm Calm -- 29.96 in1014.6 mb 0.00 in0.0 mm 0.00 in0.0 mm 0.00 in0.0 mm
05:04 AM 51.6°F10.9°C 50.8°F10.4°C 97% 1.7 mph NNW2.7 kmh NNW 2.1 mph3.4 kmh 29.95 in1014.2 mb 0.00 in0.0 mm 0.00 in0.0 mm 0.00 in0.0 mm
05:09 AM 51.6°F10.9°C 50.5°F10.3°C 96% 0.6 mph NNW1.0 kmh NNW 1.8 mph2.9 kmh 29.95 in1014.2 mb 0.00 in0.0 mm 0.00 in0.0 mm 0.00 in0.0 mm
05:14 AM 51.7°F10.9°C 50.6°F10.3°C 96% 0.4 mph NNW0.6 kmh NNW 1.3 mph2.1 kmh 29.95 in1014.2 mb 0.00 in0.0 mm 0.00 in0.0 mm 0.00 in0.0 mm
05:19 AM 51.8°F11.0°C 51.0°F10.6°C 97% Calm Calm -- 29.95 in1014.2 mb 0.00 in0.0 mm 0.00 in0.0 mm 0.00 in0.0 mm
05:24 AM 52.2°F11.2°C 51.4°F10.8°C 97% 0.8 mph NNW1.3 kmh NNW 2.2 mph3.5 kmh 29.95 in1014.2 mb 0.00 in0.0 mm 0.00 in0.0 mm 0.00 in0.0 mm
05:29 AM 52.5°F11.4°C 52.0°F11.1°C 98% 2.7 mph NNW4.3 kmh NNW 3.0 mph4.8 kmh 29.96 in1014.6 mb 0.00 in0.0 mm 0.00 in0.0 mm 0.00 in0.0 mm
05:34 AM 52.6°F11.4°C 51.8°F11.0°C 97% 1.7 mph NNW2.7 kmh NNW 2.2 mph3.5 kmh 29.96 in1014.6 mb 0.00 in0.0 mm 0.00 in0.0 mm 0.00 in0.0 mm
05:39 AM 52.7°F11.5°C 52.2°F11.2°C 98% Calm Calm -- 29.96 in1014.6 mb 0.00 in0.0 mm 0.00 in0.0 mm 0.00 in0.0 mm
05:44 AM 52.8°F11.6°C 52.3°F11.3°C 98% Calm Calm -- 29.96 in1014.6 mb 0.00 in0.0 mm 0.00 in0.0 mm 0.00 in0.0 mm
05:49 AM 53.2°F11.8°C 52.4°F11.3°C 97% Calm Calm -- 29.95 in1014.2 mb 0.00 in0.0 mm 0.00 in0.0 mm 0.00 in0.0 mm
05:54 AM 53.3°F11.8°C 52.7°F11.5°C 98% Calm Calm -- 29.95 in1014.2 mb 0.00 in0.0 mm 0.00 in0.0 mm 0.00 in0.0 mm
05:59 AM 53.5°F11.9°C 52.9°F11.6°C 98% 1.7 mph N2.7 kmh N 2.1 mph3.4 kmh 29.95 in1014.2 mb 0.00 in0.0 mm 0.00 in0.0 mm 0.00 in0.0 mm
06:04 AM 53.7°F12.1°C 53.1°F11.7°C 98% Calm Calm -- 29.94 in1013.9 mb 0.00 in0.0 mm 0.00 in0.0 mm 0.00 in0.0 mm
06:09 AM 54.0°F12.2°C 53.2°F11.8°C 97% 0.3 mph ESE0.5 kmh ESE 1.3 mph2.1 kmh 29.94 in1013.9 mb 0.00 in0.0 mm 0.00 in0.0 mm 0.00 in0.0 mm
06:14 AM 54.2°F12.3°C 53.6°F12.0°C 98% 1.5 mph SSE2.4 kmh SSE 1.8 mph2.9 kmh 29.94 in1013.9 mb 0.00 in0.0 mm 0.00 in0.0 mm 0.00 in0.0 mm
06:19 AM 54.5°F12.5°C 53.9°F12.2°C 98% Calm Calm -- 29.93 in1013.5 mb 0.00 in0.0 mm 0.00 in0.0 mm 0.00 in0.0 mm
06:24 AM 54.6°F12.6°C 53.8°F12.1°C 97% 0.1 mph SSE0.2 kmh SSE 1.1 mph1.8 kmh 29.93 in1013.5 mb 0.00 in0.0 mm 0.00 in0.0 mm 0.00 in0.0 mm
06:29 AM 54.9°F12.7°C 54.3°F12.4°C 98% 0.6 mph S1.0 kmh S 1.8 mph2.9 kmh 29.93 in1013.5 mb 0.00 in0.0 mm 0.00 in0.0 mm 0.00 in0.0 mm
06:34 AM 55.5°F13.1°C 54.9°F12.7°C 98% 3.1 mph SSW5.0 kmh SSW 4.4 mph7.1 kmh 29.93 in1013.5 mb 0.00 in0.0 mm 0.00 in0.0 mm 0.00 in0.0 mm
06:39 AM 56.3°F13.5°C 55.5°F13.1°C 97% 2.5 mph SSW4.0 kmh SSW 3.5 mph5.6 kmh 29.92 in1013.2 mb 0.00 in0.0 mm 0.00 in0.0 mm 0.00 in0.0 mm
06:44 AM 57.0°F13.9°C 56.2°F13.4°C 97% 4.3 mph SSW6.9 kmh SSW 5.5 mph8.9 kmh 29.92 in1013.2 mb 0.00 in0.0 mm 0.00 in0.0 mm 0.00 in0.0 mm
06:49 AM 57.5°F14.2°C 56.4°F13.6°C 96% 3.6 mph SW5.8 kmh SW 4.9 mph7.9 kmh 29.92 in1013.2 mb 0.00 in0.0 mm 0.00 in0.0 mm 0.00 in0.0 mm
06:54 AM 57.8°F14.3°C 56.4°F13.6°C 95% 3.0 mph WSW4.8 kmh WSW 4.9 mph7.9 kmh 29.92 in1013.2 mb 0.00 in0.0 mm 0.00 in0.0 mm 0.00 in0.0 mm
06:59 AM 58.0°F14.4°C 56.3°F13.5°C 94% 0.3 mph SW0.5 kmh SW 1.6 mph2.6 kmh 29.92 in1013.2 mb 0.00 in0.0 mm 0.00 in0.0 mm 0.00 in0.0 mm
07:04 AM 58.1°F14.5°C 56.7°F13.7°C 95% 4.6 mph SW7.4 kmh SW 7.2 mph11.6 kmh 29.92 in1013.2 mb 0.00 in0.0 mm 0.00 in0.0 mm 0.00 in0.0 mm
07:09 AM 58.2°F14.6°C 56.5°F13.6°C 94% 4.2 mph SW6.8 kmh SW 6.5 mph10.5 kmh 29.92 in1013.2 mb 0.00 in0.0 mm 0.00 in0.0 mm 0.00 in0.0 mm
07:14 AM 58.3°F14.6°C 56.9°F13.8°C 95% 4.7 mph SW7.6 kmh SW 7.9 mph12.7 kmh 29.92 in1013.2 mb 0.00 in0.0 mm 0.00 in0.0 mm 0.00 in0.0 mm
07:19 AM 58.5°F14.7°C 56.8°F13.8°C 94% 2.5 mph SW4.0 kmh SW 4.4 mph7.1 kmh 29.92 in1013.2 mb 0.00 in0.0 mm 0.00 in0.0 mm 0.00 in0.0 mm
07:24 AM 58.6°F14.8°C 57.2°F14.0°C 95% 4.0 mph SSW6.4 kmh SSW 5.7 mph9.2 kmh 29.92 in1013.2 mb 0.00 in0.0 mm 0.00 in0.0 mm 0.00 in0.0 mm
07:29 AM 58.7°F14.8°C 57.3°F14.1°C 95% 3.1 mph SSW5.0 kmh SSW 5.5 mph8.9 kmh 29.91 in1012.9 mb 0.00 in0.0 mm 0.00 in0.0 mm 0.00 in0.0 mm
07:34 AM 58.7°F14.8°C 57.0°F13.9°C 94% 3.5 mph SSW5.6 kmh SSW 4.4 mph7.1 kmh 29.91 in1012.9 mb 0.00 in0.0 mm 0.00 in0.0 mm 0.00 in0.0 mm
07:39 AM 58.7°F14.8°C 57.0°F13.9°C 94% 2.8 mph SW4.5 kmh SW 3.7 mph6.0 kmh 29.91 in1012.9 mb 0.00 in0.0 mm 0.00 in0.0 mm 0.00 in0.0 mm
07:44 AM 58.8°F14.9°C 57.4°F14.1°C 95% 2.0 mph SW3.2 kmh SW 3.5 mph5.6 kmh 29.92 in1013.2 mb 0.00 in0.0 mm 0.00 in0.0 mm 0.00 in0.0 mm
07:49 AM 59.0°F15.0°C 57.3°F14.1°C 94% 4.2 mph SW6.8 kmh SW 7.2 mph11.6 kmh 29.92 in1013.2 mb 0.00 in0.0 mm 0.00 in0.0 mm 0.00 in0.0 mm
07:54 AM 58.8°F14.9°C 57.1°F13.9°C 94% 3.4 mph SSW5.5 kmh SSW 4.0 mph6.4 kmh 29.91 in1012.9 mb 0.00 in0.0 mm 0.00 in0.0 mm 0.00 in0.0 mm
07:59 AM 58.9°F14.9°C 57.5°F14.2°C 95% 0.4 mph SSW0.6 kmh SSW 3.0 mph4.8 kmh 29.91 in1012.9 mb 0.00 in0.0 mm 0.00 in0.0 mm 0.00 in0.0 mm
08:04 AM 59.0°F15.0°C 57.6°F14.2°C 95% 2.0 mph SSW3.2 kmh SSW 3.0 mph4.8 kmh 29.91 in1012.9 mb 0.00 in0.0 mm 0.00 in0.0 mm 0.00 in0.0 mm
08:09 AM 59.0°F15.0°C 57.6°F14.2°C 95% 3.7 mph SSW6.0 kmh SSW 5.7 mph9.2 kmh 29.91 in1012.9 mb 0.00 in0.0 mm 0.00 in0.0 mm 0.00 in0.0 mm
08:14 AM 59.0°F15.0°C 57.9°F14.4°C 96% 2.3 mph SW3.7 kmh SW 3.0 mph4.8 kmh 29.91 in1012.9 mb 0.00 in0.0 mm 0.00 in0.0 mm 0.00 in0.0 mm
08:19 AM 59.1°F15.1°C 57.7°F14.3°C 95% 4.2 mph SW6.8 kmh SW 5.4 mph8.7 kmh 29.91 in1012.9 mb 0.00 in0.0 mm 0.00 in0.0 mm 0.00 in0.0 mm
08:24 AM 59.2°F15.1°C 58.1°F14.5°C 96% 3.8 mph SW6.1 kmh SW 4.7 mph7.6 kmh 29.91 in1012.9 mb 0.00 in0.0 mm 0.00 in0.0 mm 0.00 in0.0 mm
08:29 AM 59.4°F15.2°C 58.3°F14.6°C 96% 2.9 mph S4.7 kmh S 4.4 mph7.1 kmh 29.90 in1012.5 mb 0.00 in0.0 mm 0.00 in0.0 mm 0.00 in0.0 mm
08:34 AM 59.6°F15.3°C 58.5°F14.7°C 96% 5.3 mph SSW8.5 kmh SSW 6.5 mph10.5 kmh 29.89 in1012.2 mb 0.00 in0.0 mm 0.00 in0.0 mm 0.00 in0.0 mm
08:39 AM 59.7°F15.4°C 58.6°F14.8°C 96% 4.3 mph SSW6.9 kmh SSW 6.0 mph9.7 kmh 29.89 in1012.2 mb 0.00 in0.0 mm 0.00 in0.0 mm 0.00 in0.0 mm
08:44 AM 59.7°F15.4°C 58.3°F14.6°C 95% 3.6 mph SW5.8 kmh SW 4.2 mph6.8 kmh 29.89 in1012.2 mb 0.00 in0.0 mm 0.00 in0.0 mm 0.00 in0.0 mm
08:49 AM 59.7°F15.4°C 58.3°F14.6°C 95% 4.2 mph SSW6.8 kmh SSW 6.0 mph9.7 kmh 29.89 in1012.2 mb 0.00 in0.0 mm 0.00 in0.0 mm 0.00 in0.0 mm
08:54 AM 59.7°F15.4°C 58.0°F14.4°C 94% 3.1 mph SW5.0 kmh SW 6.2 mph10.0 kmh 29.89 in1012.2 mb 0.00 in0.0 mm 0.00 in0.0 mm 0.00 in0.0 mm
08:59 AM 59.7°F15.4°C 58.3°F14.6°C 95% 4.9 mph SW7.9 kmh SW 6.7 mph10.8 kmh 29.90 in1012.5 mb 0.00 in0.0 mm 0.00 in0.0 mm 0.00 in0.0 mm
09:04 AM 59.7°F15.4°C 58.0°F14.4°C 94% 2.7 mph SW4.3 kmh SW 4.0 mph6.4 kmh 29.89 in1012.2 mb 0.00 in0.0 mm 0.00 in0.0 mm 0.00 in0.0 mm
09:09 AM 59.7°F15.4°C 58.0°F14.4°C 94% 5.1 mph SSW8.2 kmh SSW 7.9 mph12.7 kmh 29.89 in1012.2 mb 0.00 in0.0 mm 0.00 in0.0 mm 0.00 in0.0 mm
09:14 AM 59.7°F15.4°C 58.3°F14.6°C 95% 3.0 mph SW4.8 kmh SW 4.2 mph6.8 kmh 29.89 in1012.2 mb 0.00 in0.0 mm 0.00 in0.0 mm 0.00 in0.0 mm
09:19 AM 59.8°F15.4°C 58.1°F14.5°C 94% 3.0 mph SW4.8 kmh SW 3.7 mph6.0 kmh 29.90 in1012.5 mb 0.00 in0.0 mm 0.00 in0.0 mm 0.00 in0.0 mm
09:24 AM 60.0°F15.6°C 58.3°F14.6°C 94% 6.0 mph SW9.7 kmh SW 9.0 mph14.5 kmh 29.88 in1011.9 mb 0.00 in0.0 mm 0.00 in0.0 mm 0.00 in0.0 mm
09:29 AM 60.2°F15.7°C 58.8°F14.9°C 95% 6.5 mph SSW10.5 kmh SSW 11.1 mph17.9 kmh 29.88 in1011.9 mb 0.00 in0.0 mm 0.00 in0.0 mm 0.00 in0.0 mm
09:34 AM 60.4°F15.8°C 59.0°F15.0°C 95% 7.0 mph SSW11.3 kmh SSW 9.0 mph14.5 kmh 29.87 in1011.5 mb 0.00 in0.0 mm 0.00 in0.0 mm 0.00 in0.0 mm
09:39 AM 60.5°F15.8°C 58.8°F14.9°C 94% 6.2 mph SW10.0 kmh SW 9.0 mph14.5 kmh 29.87 in1011.5 mb 0.00 in0.0 mm 0.00 in0.0 mm 0.00 in0.0 mm
09:44 AM 60.6°F15.9°C 58.9°F14.9°C 94% 1.7 mph SW2.7 kmh SW 4.2 mph6.8 kmh 29.87 in1011.5 mb 0.00 in0.0 mm 0.00 in0.0 mm 0.00 in0.0 mm
09:49 AM 60.7°F15.9°C 59.0°F15.0°C 94% 4.0 mph S6.4 kmh S 7.5 mph12.1 kmh 29.87 in1011.5 mb 0.00 in0.0 mm 0.00 in0.0 mm 0.00 in0.0 mm
09:54 AM 60.7°F15.9°C 58.7°F14.8°C 93% 5.1 mph SW8.2 kmh SW 7.7 mph12.4 kmh 29.87 in1011.5 mb 0.00 in0.0 mm 0.00 in0.0 mm 0.00 in0.0 mm
09:59 AM 60.6°F15.9°C 58.6°F14.8°C 93% 1.7 mph SSW2.7 kmh SSW 2.6 mph4.2 kmh 29.88 in1011.9 mb 0.00 in0.0 mm 0.00 in0.0 mm 0.00 in0.0 mm
10:04 AM 60.7°F15.9°C 58.7°F14.8°C 93% Calm Calm -- 29.87 in1011.5 mb 0.00 in0.0 mm 0.00 in0.0 mm 0.00 in0.0 mm
10:09 AM 60.7°F15.9°C 59.0°F15.0°C 94% Calm Calm 1.1 mph1.8 kmh 29.89 in1012.2 mb 0.00 in0.0 mm 0.00 in0.0 mm 0.00 in0.0 mm
10:14 AM 60.7°F15.9°C 58.7°F14.8°C 93% 1.5 mph WSW2.4 kmh WSW 3.0 mph4.8 kmh 29.90 in1012.5 mb 0.00 in0.0 mm 0.00 in0.0 mm 0.00 in0.0 mm
10:19 AM 60.7°F15.9°C 58.7°F14.8°C 93% 4.6 mph SSW7.4 kmh SSW 5.7 mph9.2 kmh 29.89 in1012.2 mb 0.00 in0.0 mm 0.00 in0.0 mm 0.00 in0.0 mm
10:24 AM 60.7°F15.9°C 58.7°F14.8°C 93% 4.9 mph SSW7.9 kmh SSW 9.0 mph14.5 kmh 29.88 in1011.9 mb 0.00 in0.0 mm 0.00 in0.0 mm 0.02 in0.5 mm
10:29 AM 60.7°F15.9°C 58.7°F14.8°C 93% 4.4 mph SSW7.1 kmh SSW 5.0 mph8.0 kmh 29.88 in1011.9 mb 0.00 in0.0 mm 0.00 in0.0 mm 0.03 in0.8 mm
10:34 AM 60.4°F15.8°C 58.7°F14.8°C 94% 5.7 mph SSW9.2 kmh SSW 7.2 mph11.6 kmh 29.87 in1011.5 mb 0.00 in0.0 mm 0.00 in0.0 mm 0.04 in1.0 mm
10:39 AM 60.2°F15.7°C 58.5°F14.7°C 94% 8.8 mph SSW14.2 kmh SSW 11.0 mph17.7 kmh 29.86 in1011.2 mb 0.00 in0.0 mm 0.00 in0.0 mm 0.04 in1.0 mm
10:44 AM 60.5°F15.8°C 58.8°F14.9°C 94% 7.5 mph SSW12.1 kmh SSW 10.6 mph17.1 kmh 29.85 in1010.8 mb 0.00 in0.0 mm 0.00 in0.0 mm 0.04 in1.0 mm
10:49 AM 60.7°F15.9°C 59.3°F15.2°C 95% 8.3 mph SSW13.4 kmh SSW 11.0 mph17.7 kmh 29.84 in1010.5 mb 0.00 in0.0 mm 0.00 in0.0 mm 0.05 in1.3 mm
10:54 AM 60.7°F15.9°C 59.3°F15.2°C 95% 8.5 mph SSW13.7 kmh SSW 11.6 mph18.7 kmh 29.84 in1010.5 mb 0.00 in0.0 mm 0.00 in0.0 mm 0.05 in1.3 mm
10:59 AM 60.9°F16.1°C 59.2°F15.1°C 94% 7.1 mph SSW11.4 kmh SSW 11.0 mph17.7 kmh 29.84 in1010.5 mb 0.00 in0.0 mm 0.00 in0.0 mm 0.05 in1.3 mm
11:04 AM 61.2°F16.2°C 59.8°F15.4°C 95% 6.4 mph SSW10.3 kmh SSW 8.4 mph13.5 kmh 29.84 in1010.5 mb 0.00 in0.0 mm 0.00 in0.0 mm 0.05 in1.3 mm
11:09 AM 61.4°F16.3°C 59.7°F15.4°C 94% 4.5 mph SW7.2 kmh SW 7.7 mph12.4 kmh 29.84 in1010.5 mb 0.00 in0.0 mm 0.00 in0.0 mm 0.05 in1.3 mm
11:14 AM 61.7°F16.5°C 60.0°F15.6°C 94% 5.4 mph SW8.7 kmh SW 9.3 mph15.0 kmh 29.83 in1010.2 mb 0.00 in0.0 mm 0.00 in0.0 mm 0.05 in1.3 mm
11:19 AM 61.7°F16.5°C 59.7°F15.4°C 93% 3.7 mph SW6.0 kmh SW 6.0 mph9.7 kmh 29.83 in1010.2 mb 0.00 in0.0 mm 0.00 in0.0 mm 0.05 in1.3 mm
11:24 AM 62.2°F16.8°C 60.4°F15.8°C 94% 7.0 mph SSW11.3 kmh SSW 10.0 mph16.1 kmh 29.82 in1009.8 mb 0.00 in0.0 mm 0.00 in0.0 mm 0.05 in1.3 mm
11:29 AM 62.5°F16.9°C 60.4°F15.8°C 93% 9.7 mph SW15.6 kmh SW 16.6 mph26.7 kmh 29.81 in1009.5 mb 0.00 in0.0 mm 0.00 in0.0 mm 0.05 in1.3 mm
11:34 AM 62.7°F17.1°C 60.6°F15.9°C 93% 7.8 mph SSW12.6 kmh SSW 14.0 mph22.5 kmh 29.80 in1009.1 mb 0.00 in0.0 mm 0.00 in0.0 mm 0.05 in1.3 mm
11:39 AM 62.8°F17.1°C 60.4°F15.8°C 92% 8.9 mph SW14.3 kmh SW 13.8 mph22.2 kmh 29.79 in1008.8 mb 0.00 in0.0 mm 0.00 in0.0 mm 0.05 in1.3 mm
11:44 AM 63.0°F17.2°C 60.3°F15.7°C 91% 6.4 mph SW10.3 kmh SW 11.9 mph19.2 kmh 29.79 in1008.8 mb 0.00 in0.0 mm 0.00 in0.0 mm 0.05 in1.3 mm
11:49 AM 63.0°F17.2°C 60.0°F15.6°C 90% 8.4 mph SW13.5 kmh SW 13.3 mph21.4 kmh 29.79 in1008.8 mb 0.00 in0.0 mm 0.00 in0.0 mm 0.05 in1.3 mm
11:54 AM 63.2°F17.3°C 60.2°F15.7°C 90% 10.6 mph WSW17.1 kmh WSW 15.1 mph24.3 kmh 29.79 in1008.8 mb 0.00 in0.0 mm 0.00 in0.0 mm 0.05 in1.3 mm
11:59 AM 63.5°F17.5°C 60.2°F15.7°C 89% 9.4 mph SSW15.1 kmh SSW 13.8 mph22.2 kmh 29.78 in1008.5 mb 0.00 in0.0 mm 0.00 in0.0 mm 0.05 in1.3 mm
12:04 PM 63.9°F17.7°C 60.3°F15.7°C 88% 9.3 mph SW15.0 kmh SW 13.8 mph22.2 kmh 29.78 in1008.5 mb 0.00 in0.0 mm 0.00 in0.0 mm 0.05 in1.3 mm
12:09 PM 64.2°F17.9°C 60.6°F15.9°C 88% 11.8 mph SW19.0 kmh SW 18.1 mph29.1 kmh 29.78 in1008.5 mb 0.00 in0.0 mm 0.00 in0.0 mm 0.05 in1.3 mm
12:14 PM 64.4°F18.0°C 60.8°F16.0°C 88% 9.1 mph SW14.6 kmh SW 14.1 mph22.7 kmh 29.78 in1008.5 mb 0.00 in0.0 mm 0.00 in0.0 mm 0.05 in1.3 mm
12:19 PM 64.4°F18.0°C 60.4°F15.8°C 87% 9.5 mph SW15.3 kmh SW 16.8 mph27.0 kmh 29.78 in1008.5 mb 0.00 in0.0 mm 0.00 in0.0 mm 0.05 in1.3 mm
12:24 PM 64.4°F18.0°C 60.4°F15.8°C 87% 10.3 mph SW16.6 kmh SW 18.6 mph29.9 kmh 29.78 in1008.5 mb 0.00 in0.0 mm 0.00 in0.0 mm 0.05 in1.3 mm
12:29 PM 64.5°F18.1°C 60.2°F15.7°C 86% 6.3 mph SW10.1 kmh SW 8.5 mph13.7 kmh 29.78 in1008.5 mb 0.00 in0.0 mm 0.00 in0.0 mm 0.05 in1.3 mm
12:34 PM 64.5°F18.1°C 60.2°F15.7°C 86% 8.0 mph WSW12.9 kmh WSW 14.1 mph22.7 kmh 29.79 in1008.8 mb 0.00 in0.0 mm 0.00 in0.0 mm 0.05 in1.3 mm
12:39 PM 64.3°F17.9°C 59.7°F15.4°C 85% 8.5 mph SW13.7 kmh SW 12.4 mph20.0 kmh 29.79 in1008.8 mb 0.00 in0.0 mm 0.00 in0.0 mm 0.05 in1.3 mm
12:44 PM 64.2°F17.9°C 59.9°F15.5°C 86% 4.3 mph SW6.9 kmh SW 7.7 mph12.4 kmh 29.79 in1008.8 mb 0.00 in0.0 mm 0.00 in0.0 mm 0.05 in1.3 mm
12:49 PM 64.2°F17.9°C 59.9°F15.5°C 86% 10.2 mph SW16.4 kmh SW 13.8 mph22.2 kmh 29.78 in1008.5 mb 0.00 in0.0 mm 0.00 in0.0 mm 0.05 in1.3 mm
12:54 PM 64.6°F18.1°C 60.0°F15.6°C 85% 6.0 mph SW9.7 kmh SW 13.3 mph21.4 kmh 29.78 in1008.5 mb 0.00 in0.0 mm 0.00 in0.0 mm 0.05 in1.3 mm
12:59 PM 65.0°F18.3°C 60.4°F15.8°C 85% 9.7 mph SW15.6 kmh SW 14.6 mph23.5 kmh 29.77 in1008.1 mb 0.00 in0.0 mm 0.00 in0.0 mm 0.05 in1.3 mm
01:04 PM 65.2°F18.4°C 60.2°F15.7°C 84% 5.6 mph SW9.0 kmh SW 10.5 mph16.9 kmh 29.77 in1008.1 mb 0.00 in0.0 mm 0.00 in0.0 mm 0.05 in1.3 mm
01:09 PM 65.2°F18.4°C 60.2°F15.7°C 84% 8.3 mph SW13.4 kmh SW 14.6 mph23.5 kmh 29.77 in1008.1 mb 0.00 in0.0 mm 0.00 in0.0 mm 0.05 in1.3 mm
01:14 PM 65.2°F18.4°C 60.2°F15.7°C 84% 6.9 mph SW11.1 kmh SW 11.6 mph18.7 kmh 29.77 in1008.1 mb 0.00 in0.0 mm 0.00 in0.0 mm 0.05 in1.3 mm
01:19 PM 65.0°F18.3°C 60.0°F15.6°C 84% 10.4 mph SW16.7 kmh SW 13.8 mph22.2 kmh 0.00 in0.0 mb 0.00 in0.0 mm 0.00 in0.0 mm 0.05 in1.3 mm
02:23 PM 66.4°F19.1°C 60.4°F15.8°C 81% 7.0 mph SW11.3 kmh SW 12.8 mph20.6 kmh 0.00 in0.0 mb 0.00 in0.0 mm 0.00 in0.0 mm 0.05 in1.3 mm
02:44 PM 66.7°F19.3°C 60.3°F15.7°C 80% 7.4 mph SW11.9 kmh SW 9.0 mph14.5 kmh 0.00 in0.0 mb 0.00 in0.0 mm 0.00 in0.0 mm 0.05 in1.3 mm
03:05 PM 66.4°F19.1°C 60.7°F15.9°C 82% 6.2 mph SW10.0 kmh SW 9.8 mph15.8 kmh 0.00 in0.0 mb 0.00 in0.0 mm 0.00 in0.0 mm 0.05 in1.3 mm
03:33 PM 66.0°F18.9°C 60.7°F15.9°C 83% 3.8 mph SSW6.1 kmh SSW 4.9 mph7.9 kmh 0.00 in0.0 mb 0.00 in0.0 mm 0.00 in0.0 mm 0.05 in1.3 mm
03:41 PM 66.5°F19.2°C 61.5°F16.4°C 84% 4.7 mph SW7.6 kmh SW 7.9 mph12.7 kmh 0.00 in0.0 mb 0.00 in0.0 mm 0.00 in0.0 mm 0.05 in1.3 mm
03:57 PM 66.4°F19.1°C 61.4°F16.3°C 84% 3.7 mph SW6.0 kmh SW 7.0 mph11.3 kmh 0.00 in0.0 mb 0.00 in0.0 mm 0.00 in0.0 mm 0.05 in1.3 mm
04:17 PM 66.0°F18.9°C 61.4°F16.3°C 85% 5.0 mph SW8.0 kmh SW 7.7 mph12.4 kmh 0.00 in0.0 mb 0.00 in0.0 mm 0.00 in0.0 mm 0.05 in1.3 mm
04:34 PM 66.3°F19.1°C 61.3°F16.3°C 84% 4.8 mph SW7.7 kmh SW 7.9 mph12.7 kmh 0.00 in0.0 mb 0.00 in0.0 mm 0.00 in0.0 mm 0.05 in1.3 mm
04:49 PM 67.7°F19.8°C 62.3°F16.8°C 83% 1.8 mph SW2.9 kmh SW 3.2 mph5.1 kmh 0.00 in0.0 mb 0.00 in0.0 mm 0.00 in0.0 mm 0.05 in1.3 mm
05:05 PM 68.1°F20.1°C 63.1°F17.3°C 84% 1.0 mph WSW1.6 kmh WSW 4.2 mph6.8 kmh 0.00 in0.0 mb 0.00 in0.0 mm 0.00 in0.0 mm 0.05 in1.3 mm
05:19 PM 67.9°F19.9°C 62.5°F16.9°C 83% 3.4 mph SW5.5 kmh SW 4.4 mph7.1 kmh 29.67 in1004.7 mb 0.00 in0.0 mm 0.00 in0.0 mm 0.05 in1.3 mm
05:24 PM 67.7°F19.8°C 62.3°F16.8°C 83% 5.6 mph SW9.0 kmh SW 8.9 mph14.3 kmh 29.66 in1004.4 mb 0.00 in0.0 mm 0.00 in0.0 mm 0.05 in1.3 mm
05:29 PM 67.5°F19.7°C 62.8°F17.1°C 85% 4.5 mph SW7.2 kmh SW 7.0 mph11.3 kmh 29.66 in1004.4 mb 0.00 in0.0 mm 0.00 in0.0 mm 0.05 in1.3 mm
05:34 PM 67.3°F19.6°C 62.3°F16.8°C 84% 3.2 mph SW5.1 kmh SW 4.2 mph6.8 kmh 29.65 in1004.1 mb 0.00 in0.0 mm 0.00 in0.0 mm 0.05 in1.3 mm
05:39 PM 67.2°F19.6°C 62.5°F16.9°C 85% 5.8 mph SSW9.3 kmh SSW 7.7 mph12.4 kmh 29.66 in1004.4 mb 0.00 in0.0 mm 0.00 in0.0 mm 0.05 in1.3 mm
05:44 PM 67.0°F19.4°C 62.3°F16.8°C 85% 5.0 mph SW8.0 kmh SW 7.0 mph11.3 kmh 29.66 in1004.4 mb 0.00 in0.0 mm 0.00 in0.0 mm 0.05 in1.3 mm
05:49 PM 67.0°F19.4°C 62.3°F16.8°C 85% 7.3 mph SSW11.7 kmh SSW 12.4 mph20.0 kmh 29.66 in1004.4 mb 0.00 in0.0 mm 0.00 in0.0 mm 0.05 in1.3 mm
05:54 PM 67.0°F19.4°C 62.7°F17.1°C 86% 6.6 mph SW10.6 kmh SW 11.0 mph17.7 kmh 29.65 in1004.1 mb 0.00 in0.0 mm 0.00 in0.0 mm 0.05 in1.3 mm
05:59 PM 67.0°F19.4°C 62.7°F17.1°C 86% 6.5 mph SSW10.5 kmh SSW 10.0 mph16.1 kmh 29.64 in1003.7 mb 0.00 in0.0 mm 0.00 in0.0 mm 0.05 in1.3 mm
06:04 PM 67.0°F19.4°C 62.7°F17.1°C 86% 5.1 mph SW8.2 kmh SW 7.7 mph12.4 kmh 29.64 in1003.7 mb 0.00 in0.0 mm 0.00 in0.0 mm 0.05 in1.3 mm
06:09 PM 67.0°F19.4°C 62.7°F17.1°C 86% 6.8 mph SW10.9 kmh SW 8.9 mph14.3 kmh 29.64 in1003.7 mb 0.00 in0.0 mm 0.00 in0.0 mm 0.05 in1.3 mm
06:14 PM 67.0°F19.4°C 62.7°F17.1°C 86% 7.3 mph SW11.7 kmh SW 9.5 mph15.3 kmh 29.64 in1003.7 mb 0.00 in0.0 mm 0.00 in0.0 mm 0.05 in1.3 mm
06:19 PM 67.0°F19.4°C 62.7°F17.1°C 86% 4.5 mph SW7.2 kmh SW 7.7 mph12.4 kmh 29.64 in1003.7 mb 0.00 in0.0 mm 0.00 in0.0 mm 0.05 in1.3 mm
06:24 PM 67.0°F19.4°C 62.7°F17.1°C 86% 6.1 mph SW9.8 kmh SW 8.5 mph13.7 kmh 29.64 in1003.7 mb 0.00 in0.0 mm 0.00 in0.0 mm 0.05 in1.3 mm
06:29 PM 66.9°F19.4°C 62.6°F17.0°C 86% 7.1 mph SW11.4 kmh SW 9.0 mph14.5 kmh 29.63 in1003.4 mb 0.00 in0.0 mm 0.00 in0.0 mm 0.05 in1.3 mm
06:34 PM 66.6°F19.2°C 62.6°F17.0°C 87% 4.9 mph SW7.9 kmh SW 7.5 mph12.1 kmh 29.63 in1003.4 mb 0.00 in0.0 mm 0.00 in0.0 mm 0.05 in1.3 mm
06:39 PM 66.4°F19.1°C 62.7°F17.1°C 88% 6.4 mph SSW10.3 kmh SSW 10.0 mph16.1 kmh 29.63 in1003.4 mb 0.00 in0.0 mm 0.00 in0.0 mm 0.05 in1.3 mm
06:44 PM 66.2°F19.0°C 62.9°F17.2°C 89% 5.9 mph SW9.5 kmh SW 8.1 mph13.0 kmh 29.63 in1003.4 mb 0.00 in0.0 mm 0.00 in0.0 mm 0.05 in1.3 mm
06:49 PM 66.4°F19.1°C 63.1°F17.3°C 89% 3.1 mph SW5.0 kmh SW 7.7 mph12.4 kmh 29.63 in1003.4 mb 0.00 in0.0 mm 0.00 in0.0 mm 0.05 in1.3 mm
06:54 PM 66.8°F19.3°C 63.8°F17.7°C 90% 3.0 mph WSW4.8 kmh WSW 5.4 mph8.7 kmh 29.63 in1003.4 mb 0.00 in0.0 mm 0.00 in0.0 mm 0.05 in1.3 mm
06:59 PM 67.1°F19.5°C 64.1°F17.8°C 90% 3.1 mph WSW5.0 kmh WSW 5.7 mph9.2 kmh 29.64 in1003.7 mb 0.00 in0.0 mm 0.00 in0.0 mm 0.05 in1.3 mm
07:04 PM 67.2°F19.6°C 63.8°F17.7°C 89% 4.0 mph SW6.4 kmh SW 7.7 mph12.4 kmh 29.64 in1003.7 mb 0.00 in0.0 mm 0.00 in0.0 mm 0.05 in1.3 mm
07:09 PM 67.1°F19.5°C 64.1°F17.8°C 90% 3.7 mph SW6.0 kmh SW 6.7 mph10.8 kmh 29.64 in1003.7 mb 0.00 in0.0 mm 0.00 in0.0 mm 0.05 in1.3 mm
07:14 PM 67.0°F19.4°C 63.6°F17.6°C 89% 5.6 mph SW9.0 kmh SW 7.7 mph12.4 kmh 29.63 in1003.4 mb 0.00 in0.0 mm 0.00 in0.0 mm 0.05 in1.3 mm
07:19 PM 67.0°F19.4°C 64.0°F17.8°C 90% 4.9 mph SSW7.9 kmh SSW 6.2 mph10.0 kmh 29.63 in1003.4 mb 0.00 in0.0 mm 0.00 in0.0 mm 0.05 in1.3 mm
07:24 PM 66.9°F19.4°C 64.2°F17.9°C 91% 4.9 mph SSW7.9 kmh SSW 6.5 mph10.5 kmh 29.62 in1003.0 mb 0.00 in0.0 mm 0.00 in0.0 mm 0.05 in1.3 mm
07:29 PM 66.6°F19.2°C 63.9°F17.7°C 91% 4.5 mph SSW7.2 kmh SSW 6.5 mph10.5 kmh 29.62 in1003.0 mb 0.00 in0.0 mm 0.00 in0.0 mm 0.05 in1.3 mm
07:34 PM 66.3°F19.1°C 63.6°F17.6°C 91% 4.4 mph SSW7.1 kmh SSW 6.0 mph9.7 kmh 29.61 in1002.7 mb 0.00 in0.0 mm 0.00 in0.0 mm 0.05 in1.3 mm
07:39 PM 66.2°F19.0°C 63.5°F17.5°C 91% 5.1 mph SW8.2 kmh SW 7.0 mph11.3 kmh 29.61 in1002.7 mb 0.00 in0.0 mm 0.00 in0.0 mm 0.05 in1.3 mm
07:44 PM 66.0°F18.9°C 63.3°F17.4°C 91% 3.9 mph SW6.3 kmh SW 6.2 mph10.0 kmh 29.61 in1002.7 mb 0.00 in0.0 mm 0.00 in0.0 mm 0.05 in1.3 mm
07:49 PM 66.1°F18.9°C 63.4°F17.4°C 91% 4.6 mph SW7.4 kmh SW 5.7 mph9.2 kmh 29.61 in1002.7 mb 0.00 in0.0 mm 0.00 in0.0 mm 0.05 in1.3 mm
07:54 PM 66.0°F18.9°C 63.6°F17.6°C 92% 3.7 mph SW6.0 kmh SW 6.7 mph10.8 kmh 29.60 in1002.4 mb 0.00 in0.0 mm 0.00 in0.0 mm 0.05 in1.3 mm
07:59 PM 66.0°F18.9°C 63.6°F17.6°C 92% 5.9 mph SSW9.5 kmh SSW 7.9 mph12.7 kmh 29.60 in1002.4 mb 0.00 in0.0 mm 0.00 in0.0 mm 0.05 in1.3 mm
08:04 PM 66.0°F18.9°C 63.6°F17.6°C 92% 6.1 mph SW9.8 kmh SW 8.1 mph13.0 kmh 29.60 in1002.4 mb 0.00 in0.0 mm 0.00 in0.0 mm 0.05 in1.3 mm
08:09 PM 66.2°F19.0°C 63.8°F17.7°C 92% 5.2 mph SW8.4 kmh SW 7.7 mph12.4 kmh 29.59 in1002.0 mb 0.00 in0.0 mm 0.00 in0.0 mm 0.05 in1.3 mm
08:14 PM 66.2°F19.0°C 63.8°F17.7°C 92% 5.0 mph SW8.0 kmh SW 7.0 mph11.3 kmh 29.59 in1002.0 mb 0.00 in0.0 mm 0.00 in0.0 mm 0.05 in1.3 mm
08:19 PM 66.5°F19.2°C 63.8°F17.7°C 91% 4.9 mph SW7.9 kmh SW 6.0 mph9.7 kmh 29.59 in1002.0 mb 0.00 in0.0 mm 0.00 in0.0 mm 0.05 in1.3 mm
08:24 PM 66.7°F19.3°C 64.6°F18.1°C 93% 7.5 mph SW12.1 kmh SW 12.0 mph19.3 kmh 29.59 in1002.0 mb 0.00 in0.0 mm 0.00 in0.0 mm 0.05 in1.3 mm
08:29 PM 67.0°F19.4°C 64.9°F18.3°C 93% 7.5 mph SW12.1 kmh SW 12.5 mph20.1 kmh 29.60 in1002.4 mb 0.00 in0.0 mm 0.00 in0.0 mm 0.05 in1.3 mm
08:34 PM 67.3°F19.6°C 65.2°F18.4°C 93% 8.0 mph SW12.9 kmh SW 12.5 mph20.1 kmh 29.59 in1002.0 mb 0.00 in0.0 mm 0.00 in0.0 mm 0.05 in1.3 mm
08:39 PM 67.5°F19.7°C 65.7°F18.7°C 94% 7.2 mph SW11.6 kmh SW 11.6 mph18.7 kmh 29.60 in1002.4 mb 0.00 in0.0 mm 0.00 in0.0 mm 0.05 in1.3 mm
08:44 PM 67.6°F19.8°C 65.5°F18.6°C 93% 8.5 mph SSW13.7 kmh SSW 12.5 mph20.1 kmh 29.59 in1002.0 mb 0.00 in0.0 mm 0.00 in0.0 mm 0.05 in1.3 mm
08:49 PM 67.5°F19.7°C 65.1°F18.4°C 92% 7.9 mph SSW12.7 kmh SSW 10.0 mph16.1 kmh 29.59 in1002.0 mb 0.00 in0.0 mm 0.00 in0.0 mm 0.05 in1.3 mm
08:54 PM 67.2°F19.6°C 65.1°F18.4°C 93% 5.9 mph SW9.5 kmh SW 9.8 mph15.8 kmh 29.59 in1002.0 mb 0.00 in0.0 mm 0.00 in0.0 mm 0.05 in1.3 mm
08:59 PM 67.2°F19.6°C 64.5°F18.1°C 91% 6.3 mph SW10.1 kmh SW 9.5 mph15.3 kmh 29.60 in1002.4 mb 0.00 in0.0 mm 0.00 in0.0 mm 0.05 in1.3 mm
09:04 PM 67.2°F19.6°C 64.8°F18.2°C 92% 9.2 mph SW14.8 kmh SW 12.5 mph20.1 kmh 29.60 in1002.4 mb 0.00 in0.0 mm 0.00 in0.0 mm 0.05 in1.3 mm
09:09 PM 67.4°F19.7°C 65.0°F18.3°C 92% 7.3 mph SW11.7 kmh SW 9.5 mph15.3 kmh 29.60 in1002.4 mb 0.00 in0.0 mm 0.00 in0.0 mm 0.05 in1.3 mm
09:14 PM 67.5°F19.7°C 65.1°F18.4°C 92% 4.3 mph SSW6.9 kmh SSW 6.5 mph10.5 kmh 29.59 in1002.0 mb 0.00 in0.0 mm 0.00 in0.0 mm 0.05 in1.3 mm
09:19 PM 67.7°F19.8°C 65.3°F18.5°C 92% 8.0 mph SW12.9 kmh SW 11.4 mph18.3 kmh 29.59 in1002.0 mb 0.00 in0.0 mm 0.00 in0.0 mm 0.05 in1.3 mm
09:24 PM 68.3°F20.2°C 65.2°F18.4°C 90% 5.6 mph SW9.0 kmh SW 8.4 mph13.5 kmh 29.59 in1002.0 mb 0.00 in0.0 mm 0.00 in0.0 mm 0.05 in1.3 mm
09:29 PM 68.7°F20.4°C 66.0°F18.9°C 91% 3.8 mph WSW6.1 kmh WSW 8.5 mph13.7 kmh 29.59 in1002.0 mb 0.00 in0.0 mm 0.00 in0.0 mm 0.05 in1.3 mm
09:34 PM 69.0°F20.6°C 65.9°F18.8°C 90% 4.6 mph SW7.4 kmh SW 10.0 mph16.1 kmh 29.58 in1001.7 mb 0.00 in0.0 mm 0.00 in0.0 mm 0.05 in1.3 mm
09:39 PM 69.2°F20.7°C 66.1°F18.9°C 90% 3.2 mph SW5.1 kmh SW 4.7 mph7.6 kmh 29.58 in1001.7 mb 0.00 in0.0 mm 0.00 in0.0 mm 0.05 in1.3 mm
09:44 PM 69.2°F20.7°C 66.1°F18.9°C 90% 3.3 mph SW5.3 kmh SW 6.5 mph10.5 kmh 29.57 in1001.4 mb 0.00 in0.0 mm 0.00 in0.0 mm 0.05 in1.3 mm
09:49 PM 69.2°F20.7°C 66.1°F18.9°C 90% 2.3 mph SW3.7 kmh SW 4.0 mph6.4 kmh 29.57 in1001.4 mb 0.00 in0.0 mm 0.00 in0.0 mm 0.05 in1.3 mm
09:54 PM 69.2°F20.7°C 66.1°F18.9°C 90% 3.7 mph SSW6.0 kmh SSW 5.4 mph8.7 kmh 29.57 in1001.4 mb 0.00 in0.0 mm 0.00 in0.0 mm 0.05 in1.3 mm
09:59 PM 69.2°F20.7°C 66.1°F18.9°C 90% 3.3 mph SW5.3 kmh SW 4.7 mph7.6 kmh 29.57 in1001.4 mb 0.00 in0.0 mm 0.00 in0.0 mm 0.05 in1.3 mm
10:04 PM 69.0°F20.6°C 66.3°F19.1°C 91% 2.4 mph WSW3.9 kmh WSW 5.4 mph8.7 kmh 29.57 in1001.4 mb 0.00 in0.0 mm 0.00 in0.0 mm 0.05 in1.3 mm
10:09 PM 69.0°F20.6°C 65.9°F18.8°C 90% 0.9 mph SSW1.4 kmh SSW 4.0 mph6.4 kmh 29.57 in1001.4 mb 0.00 in0.0 mm 0.00 in0.0 mm 0.05 in1.3 mm
10:14 PM 68.9°F20.5°C 66.2°F19.0°C 91% 1.6 mph SW2.6 kmh SW 4.4 mph7.1 kmh 29.57 in1001.4 mb 0.00 in0.0 mm 0.00 in0.0 mm 0.05 in1.3 mm
10:19 PM 68.9°F20.5°C 66.2°F19.0°C 91% 7.5 mph SW12.1 kmh SW 13.3 mph21.4 kmh 29.58 in1001.7 mb 0.00 in0.0 mm 0.00 in0.0 mm 0.05 in1.3 mm
10:24 PM 69.1°F20.6°C 66.7°F19.3°C 92% 1.3 mph WSW2.1 kmh WSW 4.0 mph6.4 kmh 29.58 in1001.7 mb 0.00 in0.0 mm 0.00 in0.0 mm 0.05 in1.3 mm
10:29 PM 69.2°F20.7°C 66.8°F19.3°C 92% 0.4 mph WNW0.6 kmh WNW 2.2 mph3.5 kmh 29.58 in1001.7 mb 0.00 in0.0 mm 0.00 in0.0 mm 0.05 in1.3 mm
10:34 PM 69.0°F20.6°C 66.3°F19.1°C 91% 2.8 mph WSW4.5 kmh WSW 6.0 mph9.7 kmh 29.58 in1001.7 mb 0.00 in0.0 mm 0.00 in0.0 mm 0.05 in1.3 mm
10:39 PM 68.9°F20.5°C 66.5°F19.2°C 92% 3.6 mph SW5.8 kmh SW 6.7 mph10.8 kmh 29.58 in1001.7 mb 0.00 in0.0 mm 0.00 in0.0 mm 0.05 in1.3 mm
10:44 PM 68.7°F20.4°C 66.3°F19.1°C 92% 3.4 mph SW5.5 kmh SW 6.7 mph10.8 kmh 29.58 in1001.7 mb 0.00 in0.0 mm 0.00 in0.0 mm 0.05 in1.3 mm
10:49 PM 68.4°F20.2°C 66.0°F18.9°C 92% 6.1 mph WSW9.8 kmh WSW 10.5 mph16.9 kmh 29.58 in1001.7 mb 0.00 in0.0 mm 0.00 in0.0 mm 0.06 in1.5 mm
10:54 PM 68.1°F20.1°C 65.7°F18.7°C 92% 4.5 mph WSW7.2 kmh WSW 7.7 mph12.4 kmh 29.57 in1001.4 mb 0.00 in0.0 mm 0.00 in0.0 mm 0.06 in1.5 mm
10:59 PM 67.8°F19.9°C 65.7°F18.7°C 93% 4.6 mph SW7.4 kmh SW 10.3 mph16.6 kmh 29.57 in1001.4 mb 0.00 in0.0 mm 0.00 in0.0 mm 0.07 in1.8 mm
11:04 PM 67.5°F19.7°C 65.7°F18.7°C 94% 1.4 mph SW2.3 kmh SW 2.7 mph4.3 kmh 29.57 in1001.4 mb 0.00 in0.0 mm 0.00 in0.0 mm 0.08 in2.0 mm
11:09 PM 67.2°F19.6°C 65.1°F18.4°C 93% 4.7 mph WSW7.6 kmh WSW 6.7 mph10.8 kmh 29.56 in1001.0 mb 0.00 in0.0 mm 0.00 in0.0 mm 0.09 in2.3 mm
11:14 PM 67.0°F19.4°C 65.2°F18.4°C 94% 4.5 mph SW7.2 kmh SW 6.5 mph10.5 kmh 29.56 in1001.0 mb 0.00 in0.0 mm 0.00 in0.0 mm 0.10 in2.5 mm
11:19 PM 66.7°F19.3°C 65.5°F18.6°C 96% 5.2 mph SW8.4 kmh SW 7.5 mph12.1 kmh 29.56 in1001.0 mb 0.00 in0.0 mm 0.00 in0.0 mm 0.12 in3.0 mm
11:24 PM 66.5°F19.2°C 65.3°F18.5°C 96% 2.2 mph SW3.5 kmh SW 4.9 mph7.9 kmh 29.55 in1000.7 mb 0.00 in0.0 mm 0.00 in0.0 mm 0.14 in3.6 mm
11:29 PM 66.4°F19.1°C 65.2°F18.4°C 96% 4.6 mph SW7.4 kmh SW 7.5 mph12.1 kmh 29.54 in1000.3 mb 0.00 in0.0 mm 0.00 in0.0 mm 0.17 in4.3 mm
11:34 PM 66.2°F19.0°C 65.0°F18.3°C 96% 7.3 mph SSW11.7 kmh SSW 9.0 mph14.5 kmh 29.54 in1000.3 mb 0.00 in0.0 mm 0.00 in0.0 mm 0.20 in5.1 mm
11:39 PM 65.7°F18.7°C 64.5°F18.1°C 96% 4.2 mph SSW6.8 kmh SSW 5.4 mph8.7 kmh 29.54 in1000.3 mb 0.00 in0.0 mm 0.00 in0.0 mm 0.28 in7.1 mm
11:44 PM 65.2°F18.4°C 64.3°F17.9°C 97% 4.1 mph SSW6.6 kmh SSW 5.0 mph8.0 kmh 29.54 in1000.3 mb 0.00 in0.0 mm 0.00 in0.0 mm 0.28 in7.1 mm
11:49 PM 65.0°F18.3°C 64.1°F17.8°C 97% 2.3 mph SW3.7 kmh SW 5.7 mph9.2 kmh 29.55 in1000.7 mb 0.00 in0.0 mm 0.00 in0.0 mm 0.29 in7.4 mm
11:54 PM 64.9°F18.3°C 63.7°F17.6°C 96% 2.7 mph SW4.3 kmh SW 4.9 mph7.9 kmh 29.55 in1000.7 mb 0.00 in0.0 mm 0.00 in0.0 mm 0.32 in8.1 mm